Time;durP1;ratioP1;P1;durP2;ratioP2;P2;SDS_P1;SDS_P2;PMS_P1;PMS_P2;Temp;Humidity;BMP_temperature;BMP_pressure;BME280_temperature;BME280_humidity;BME280_pressure;Samples;Min_cycle;Max_cycle;Signal;HPM_P1;HPM_P2
2022/06/25 00:01:54;;;;;;;6.00;2.78;;;14.80;99.90;;;;;;4990636;28;20034;-59
2022/06/25 00:07:03;;;;;;;5.85;2.40;;;14.80;99.90;;;;;;4983880;28;20042;-59
2022/06/25 00:09:29;;;;;;;6.85;2.92;;;14.80;99.90;;;;;;4984004;28;20026;-59
2022/06/25 00:14:39;;;;;;;8.20;2.70;;;14.70;99.90;;;;;;4979543;28;20045;-59
2022/06/25 00:17:05;;;;;;;5.72;2.58;;;14.70;99.90;;;;;;4980355;28;20030;-59
2022/06/25 00:19:31;;;;;;;6.55;2.60;;;14.70;99.90;;;;;;4983758;28;20039;-59
2022/06/25 00:21:57;;;;;;;7.10;2.78;;;14.60;99.90;;;;;;4983873;28;20031;-59
2022/06/25 00:24:23;;;;;;;8.73;2.83;;;14.60;99.90;;;;;;4983595;28;20022;-59
2022/06/25 00:26:49;;;;;;;5.07;2.50;;;14.60;99.90;;;;;;4980094;28;20490;-59
2022/06/25 00:29:15;;;;;;;5.43;2.42;;;14.70;99.90;;;;;;4979340;28;20022;-59
2022/06/25 00:31:42;;;;;;;5.60;2.42;;;14.60;99.90;;;;;;4983119;28;20034;-59
2022/06/25 00:34:08;;;;;;;5.35;2.45;;;14.60;99.90;;;;;;4983202;28;20038;-59
2022/06/25 00:36:33;;;;;;;7.38;2.60;;;14.60;99.90;;;;;;4983786;28;20026;-59
2022/06/25 00:38:59;;;;;;;4.45;2.45;;;14.70;99.90;;;;;;4981272;28;20026;-59
2022/06/25 00:41:25;;;;;;;7.63;2.40;;;14.70;99.90;;;;;;4979033;28;20527;-59
2022/06/25 00:43:51;;;;;;;5.43;2.33;;;14.80;99.90;;;;;;4981940;28;20401;-59
2022/06/25 00:46:17;;;;;;;6.53;2.63;;;14.80;99.90;;;;;;4983294;28;20034;-59
2022/06/25 00:48:43;;;;;;;7.60;2.90;;;14.80;99.90;;;;;;4983144;28;20067;-59
2022/06/25 00:51:14;;;;;;;5.38;2.40;;;14.80;99.90;;;;;;4982440;28;20062;-59
2022/06/25 00:53:45;;;;;;;3.58;2.47;;;14.80;99.90;;;;;;4978375;28;20074;-59
2022/06/25 00:56:13;;;;;;;5.82;2.67;;;14.80;99.90;;;;;;4990710;28;20074;-59
2022/06/25 00:58:42;;;;;;;6.10;2.53;;;14.80;99.90;;;;;;4990232;28;20034;-59
2022/06/25 01:01:08;;;;;;;5.97;2.53;;;14.70;99.90;;;;;;4989391;28;20073;-59
2022/06/25 01:03:37;;;;;;;4.50;2.70;;;14.80;99.90;;;;;;4989130;28;20023;-59
2022/06/25 01:06:04;;;;;;;5.03;2.53;;;14.80;99.90;;;;;;4991581;28;20042;-59
2022/06/25 01:08:34;;;;;;;4.82;2.28;;;14.90;99.90;;;;;;4992319;28;20025;-59
2022/06/25 01:11:01;;;;;;;6.07;2.33;;;14.90;99.90;;;;;;4990421;28;20026;-59
2022/06/25 01:13:27;;;;;;;6.13;2.50;;;15.00;99.90;;;;;;4988552;28;20042;-59
2022/06/25 01:15:53;;;;;;;8.75;2.60;;;15.00;99.90;;;;;;4989188;28;20089;-59
2022/06/25 01:18:19;;;;;;;6.70;2.50;;;15.00;99.90;;;;;;4988798;28;20027;-59
2022/06/25 01:20:44;;;;;;;5.07;2.22;;;15.00;99.90;;;;;;4993899;28;20594;-59
2022/06/25 01:23:12;;;;;;;4.43;2.20;;;15.10;99.90;;;;;;4978791;28;20031;-59
2022/06/25 01:25:39;;;;;;;8.82;2.50;;;15.20;99.90;;;;;;4982815;28;20031;-59
2022/06/25 01:28:05;;;;;;;5.65;2.30;;;15.30;99.90;;;;;;4982356;28;20377;-59
2022/06/25 01:30:31;;;;;;;6.45;2.35;;;15.30;99.90;;;;;;4982430;28;20041;-59
2022/06/25 01:32:57;;;;;;;5.57;2.40;;;15.30;99.90;;;;;;4979306;28;20070;-59
2022/06/25 01:35:23;;;;;;;8.30;2.13;;;15.30;99.90;;;;;;4977031;28;20110;-59
2022/06/25 01:37:49;;;;;;;5.35;2.38;;;15.40;99.90;;;;;;4981195;28;20153;-59
2022/06/25 01:40:15;;;;;;;4.35;2.28;;;15.40;99.90;;;;;;4982165;28;20080;-59
2022/06/25 01:42:59;;;;;;;3.78;2.00;;;15.40;99.90;;;;;;4978855;28;20125;-59
2022/06/25 01:45:36;;;;;;;5.53;2.30;;;15.40;99.90;;;;;;4989328;28;20026;-59
2022/06/25 01:48:04;;;;;;;4.47;2.38;;;15.30;99.90;;;;;;4990158;28;20030;-59
2022/06/25 01:50:31;;;;;;;5.65;2.08;;;15.30;99.90;;;;;;4991552;28;20018;-59
2022/06/25 01:52:57;;;;;;;5.78;2.30;;;15.40;99.90;;;;;;4989187;28;20034;-59
2022/06/25 01:55:23;;;;;;;4.47;2.00;;;15.40;99.90;;;;;;4988383;28;20031;-59
2022/06/25 01:57:49;;;;;;;5.78;2.30;;;15.40;99.90;;;;;;4988377;28;20038;-59
2022/06/25 02:00:21;;;;;;;4.30;1.85;;;15.40;99.90;;;;;;4993121;28;20030;-59
2022/06/25 02:02:46;;;;;;;7.53;2.50;;;15.40;99.90;;;;;;4978050;28;20569;-59
2022/06/25 02:05:15;;;;;;;5.90;2.03;;;15.50;99.90;;;;;;4977584;28;20039;-59
2022/06/25 02:07:40;;;;;;;6.82;2.35;;;15.50;99.90;;;;;;4987044;28;20435;-59
2022/06/25 02:10:07;;;;;;;3.88;1.73;;;15.60;99.90;;;;;;4988134;28;20038;-59
2022/06/25 02:12:33;;;;;;;4.55;2.03;;;15.60;99.90;;;;;;4987960;28;20038;-59
2022/06/25 02:14:59;;;;;;;5.32;1.90;;;15.70;99.90;;;;;;4990310;28;20105;-58
2022/06/25 02:17:25;;;;;;;4.85;2.17;;;15.70;99.90;;;;;;4990714;28;20025;-59
2022/06/25 02:19:51;;;;;;;6.35;1.90;;;15.70;99.90;;;;;;4988601;28;20025;-59
2022/06/25 02:22:17;;;;;;;6.72;2.13;;;15.70;99.90;;;;;;4988053;28;20030;-59
2022/06/25 02:24:42;;;;;;;5.30;2.13;;;15.70;99.90;;;;;;4987378;28;20031;-59
2022/06/25 02:27:09;;;;;;;6.18;2.47;;;15.70;99.90;;;;;;4988884;28;20038;-59
2022/06/25 02:29:35;;;;;;;4.45;2.08;;;15.70;99.90;;;;;;4991224;28;20030;-60
2022/06/25 02:32:00;;;;;;;6.78;1.90;;;15.70;99.90;;;;;;4988448;28;20026;-59
2022/06/25 02:34:26;;;;;;;7.15;1.90;;;15.70;99.90;;;;;;4987833;28;20081;-59
2022/06/25 02:36:52;;;;;;;5.22;2.15;;;15.80;99.90;;;;;;4987993;28;20034;-59
2022/06/25 02:39:18;;;;;;;5.38;1.80;;;15.80;99.90;;;;;;4992186;28;20149;-59
2022/06/25 02:41:44;;;;;;;4.35;1.90;;;15.80;99.90;;;;;;4977314;28;20029;-59
2022/06/25 02:44:10;;;;;;;5.07;1.80;;;15.80;99.90;;;;;;4976950;28;20063;-59
2022/06/25 02:46:36;;;;;;;6.05;1.90;;;15.80;99.90;;;;;;4981192;28;20116;-59
2022/06/25 02:49:02;;;;;;;7.22;2.08;;;15.80;99.90;;;;;;4981280;28;20440;-59
2022/06/25 02:51:28;;;;;;;4.75;1.85;;;15.80;99.90;;;;;;4981067;28;20392;-59
2022/06/25 02:53:55;;;;;;;5.85;1.83;;;15.80;99.90;;;;;;4975793;28;20038;-59
2022/06/25 02:59:06;;;;;;;2.97;2.00;;;15.70;99.90;;;;;;4977501;28;20066;-59
2022/06/25 03:01:31;;;;;;;6.65;2.35;;;15.70;99.90;;;;;;4981244;28;20078;-59
2022/06/25 03:03:58;;;;;;;5.13;2.10;;;15.70;99.90;;;;;;4981022;28;20473;-59
2022/06/25 03:06:24;;;;;;;6.30;2.42;;;15.70;99.90;;;;;;4980919;28;20022;-59
2022/06/25 03:08:49;;;;;;;5.88;2.15;;;15.80;99.90;;;;;;4977581;28;20026;-59
2022/06/25 03:11:16;;;;;;;4.65;2.13;;;15.80;99.90;;;;;;4976845;28;20443;-59
2022/06/25 03:13:42;;;;;;;7.03;2.45;;;15.80;99.90;;;;;;4979972;28;20038;-59
2022/06/25 03:16:08;;;;;;;4.78;2.63;;;15.80;99.90;;;;;;4980957;28;20110;-59
2022/06/25 03:18:35;;;;;;;5.93;2.40;;;15.80;99.90;;;;;;4981298;28;20147;-59
2022/06/25 03:21:01;;;;;;;4.00;2.60;;;15.80;99.90;;;;;;4979118;28;20019;-59
2022/06/25 03:23:27;;;;;;;5.43;2.30;;;15.80;99.90;;;;;;4976120;28;20048;-59
2022/06/25 03:25:53;;;;;;;5.40;2.28;;;15.80;99.90;;;;;;4978958;28;20038;-59
2022/06/25 03:28:19;;;;;;;4.40;2.00;;;15.70;99.90;;;;;;4980386;28;20472;-59
2022/06/25 03:30:45;;;;;;;4.97;2.22;;;15.70;99.90;;;;;;4980596;28;20498;-59
2022/06/25 03:33:12;;;;;;;7.38;2.30;;;15.60;99.90;;;;;;4980670;28;20034;-59
2022/06/25 03:35:37;;;;;;;4.95;2.42;;;15.60;99.90;;;;;;4976162;28;20038;-59
2022/06/25 03:38:04;;;;;;;5.47;2.30;;;15.50;99.90;;;;;;4981445;28;20404;-59
2022/06/25 03:40:29;;;;;;;4.40;2.50;;;15.50;99.90;;;;;;4984371;28;20031;-59
2022/06/25 03:42:55;;;;;;;4.05;2.35;;;15.50;99.90;;;;;;4984483;28;20506;-59
2022/06/25 03:45:21;;;;;;;6.95;2.50;;;15.50;99.90;;;;;;4984367;28;20033;-59
2022/06/25 03:47:50;;;;;;;4.75;2.22;;;15.50;99.90;;;;;;4980761;28;20511;-59
2022/06/25 03:50:22;;;;;;;5.53;2.50;;;15.60;99.90;;;;;;4979842;28;20027;-59
2022/06/25 03:52:50;;;;;;;6.43;2.33;;;15.50;99.90;;;;;;4990917;28;20093;-59
2022/06/25 03:55:16;;;;;;;6.22;2.20;;;15.50;99.90;;;;;;4990493;28;20027;-59
2022/06/25 03:57:42;;;;;;;4.93;2.50;;;15.50;99.90;;;;;;4991087;28;20109;-59
2022/06/25 04:00:09;;;;;;;5.45;2.40;;;15.40;99.90;;;;;;4983865;28;20106;-59
2022/06/25 04:02:35;;;;;;;5.05;2.40;;;15.40;99.90;;;;;;4978218;28;20040;-59
2022/06/25 04:05:01;;;;;;;3.75;2.10;;;15.40;99.90;;;;;;4981312;28;20078;-59
2022/06/25 04:07:27;;;;;;;6.72;2.40;;;15.30;99.90;;;;;;4984044;28;20030;-59
2022/06/25 04:09:53;;;;;;;5.45;2.50;;;15.30;99.90;;;;;;4983933;28;20031;-59
2022/06/25 04:12:19;;;;;;;7.65;2.30;;;15.40;99.90;;;;;;4983528;28;20035;-59
2022/06/25 04:14:44;;;;;;;5.82;2.70;;;15.40;99.90;;;;;;4979996;28;20053;-59
2022/06/25 04:17:11;;;;;;;3.58;2.10;;;15.40;99.90;;;;;;4979967;28;20022;-59
2022/06/25 04:19:42;;;;;;;5.45;2.42;;;15.40;99.90;;;;;;4983741;28;20404;-59
2022/06/25 04:22:11;;;;;;;4.82;2.25;;;15.50;99.90;;;;;;4989469;28;20119;-59
2022/06/25 04:24:39;;;;;;;6.03;2.63;;;15.50;99.90;;;;;;4984061;28;20034;-59
2022/06/25 04:27:05;;;;;;;5.80;2.50;;;15.50;99.90;;;;;;4982229;28;20022;-59
2022/06/25 04:29:31;;;;;;;4.18;2.50;;;15.50;99.90;;;;;;4978962;28;20034;-59
2022/06/25 04:31:58;;;;;;;5.22;2.60;;;15.50;99.90;;;;;;4981193;28;20019;-59
2022/06/25 04:34:24;;;;;;;7.50;2.78;;;15.50;99.90;;;;;;4983518;28;20177;-59
2022/06/25 04:36:50;;;;;;;7.07;2.80;;;15.50;99.90;;;;;;4983788;28;20031;-59
2022/06/25 04:39:16;;;;;;;4.45;2.72;;;15.50;99.90;;;;;;4983442;28;20046;-59
2022/06/25 04:41:42;;;;;;;7.07;2.80;;;15.50;99.90;;;;;;4978893;28;20069;-59
2022/06/25 04:44:08;;;;;;;5.07;2.50;;;15.50;99.90;;;;;;4990760;28;20476;-59
2022/06/25 04:46:33;;;;;;;4.72;2.50;;;15.50;99.90;;;;;;4989528;28;20034;-59
2022/06/25 04:48:59;;;;;;;5.10;2.53;;;15.50;99.90;;;;;;4989286;28;20026;-59
2022/06/25 04:51:26;;;;;;;6.15;2.58;;;15.60;99.90;;;;;;4989777;28;20026;-59
2022/06/25 04:53:55;;;;;;;7.47;2.80;;;15.50;99.90;;;;;;4992702;28;20507;-59
2022/06/25 04:56:25;;;;;;;5.63;2.60;;;15.60;99.90;;;;;;4991356;28;20062;-59
2022/06/25 04:58:52;;;;;;;8.05;2.70;;;15.60;99.90;;;;;;4990389;28;20033;-59
2022/06/25 05:01:18;;;;;;;9.23;2.70;;;15.60;99.90;;;;;;4989534;28;20027;-59
2022/06/25 05:03:43;;;;;;;8.70;2.70;;;15.60;99.90;;;;;;4989564;28;20474;-59
2022/06/25 05:06:09;;;;;;;5.65;2.95;;;15.70;99.90;;;;;;4990236;28;20109;-58
2022/06/25 05:08:36;;;;;;;5.68;2.85;;;15.80;99.90;;;;;;4993115;28;20041;-59
2022/06/25 05:11:02;;;;;;;5.68;2.78;;;15.70;99.90;;;;;;4989767;28;20025;-59
2022/06/25 05:13:27;;;;;;;5.15;2.70;;;15.80;99.90;;;;;;4989244;28;20030;-59
2022/06/25 05:15:53;;;;;;;6.95;3.03;;;15.80;99.90;;;;;;4988720;28;20019;-59
2022/06/25 05:18:19;;;;;;;4.88;2.65;;;15.70;99.90;;;;;;4982465;28;20513;-59
2022/06/25 05:20:44;;;;;;;7.28;2.60;;;15.70;99.90;;;;;;4978969;28;20088;-59
2022/06/25 05:23:11;;;;;;;5.88;2.70;;;15.70;99.90;;;;;;4978844;28;20026;-59
2022/06/25 05:25:38;;;;;;;5.07;2.30;;;15.80;99.90;;;;;;4982309;28;20085;-60
2022/06/25 05:28:04;;;;;;;7.28;2.63;;;15.80;99.90;;;;;;4982640;28;20121;-59
2022/06/25 05:30:30;;;;;;;7.93;3.22;;;15.80;99.90;;;;;;4982445;28;20133;-59
2022/06/25 05:32:56;;;;;;;7.95;2.83;;;15.80;99.90;;;;;;4979941;28;20414;-59
2022/06/25 05:35:22;;;;;;;8.40;3.15;;;15.80;99.90;;;;;;4977940;28;20035;-59
2022/06/25 05:37:48;;;;;;;5.75;2.85;;;15.90;99.90;;;;;;4981272;28;20448;-59
2022/06/25 05:40:14;;;;;;;4.40;2.40;;;15.90;99.90;;;;;;4981996;28;20023;-59
2022/06/25 05:42:39;;;;;;;4.22;2.70;;;16.00;99.90;;;;;;4982370;28;20510;-59
2022/06/25 05:45:06;;;;;;;4.43;2.58;;;15.90;99.90;;;;;;4981226;28;20041;-59
2022/06/25 05:47:31;;;;;;;5.85;2.60;;;16.00;99.90;;;;;;4977516;28;20042;-59
2022/06/25 05:49:57;;;;;;;3.97;2.40;;;16.00;99.90;;;;;;4979769;28;20161;-59
2022/06/25 05:52:23;;;;;;;7.13;2.92;;;16.10;99.90;;;;;;4981983;28;20404;-59
2022/06/25 05:54:49;;;;;;;4.40;2.40;;;16.10;99.90;;;;;;4982122;28;20099;-59
2022/06/25 05:57:15;;;;;;;5.22;2.53;;;16.10;99.90;;;;;;4982054;28;20057;-59
2022/06/25 05:59:41;;;;;;;6.72;2.70;;;16.20;99.90;;;;;;4977393;28;20027;-59
2022/06/25 06:02:07;;;;;;;6.20;2.60;;;16.20;99.90;;;;;;4989124;28;20058;-59
2022/06/25 06:04:33;;;;;;;6.82;2.53;;;16.20;99.90;;;;;;4988392;28;20475;-59
2022/06/25 06:07:02;;;;;;;5.32;2.70;;;16.20;99.90;;;;;;4987940;28;20030;-59
2022/06/25 06:09:29;;;;;;;6.30;2.70;;;16.20;99.90;;;;;;4988581;28;20031;-59
2022/06/25 06:11:55;;;;;;;4.72;2.50;;;16.20;99.90;;;;;;4988677;28;20041;-59
2022/06/25 06:14:24;;;;;;;4.47;2.90;;;16.20;99.90;;;;;;4992699;28;20522;-59
2022/06/25 06:16:50;;;;;;;6.25;2.63;;;16.30;99.90;;;;;;4988832;28;20023;-59
2022/06/25 06:19:16;;;;;;;6.20;2.65;;;16.30;99.90;;;;;;4988371;28;20121;-59
2022/06/25 06:21:42;;;;;;;8.48;2.83;;;16.40;99.90;;;;;;4987751;28;20053;-59
2022/06/25 06:24:08;;;;;;;12.10;2.90;;;16.50;99.90;;;;;;4989115;28;20031;-59
2022/06/25 06:26:34;;;;;;;5.57;2.60;;;16.50;99.90;;;;;;4991423;28;20041;-59
2022/06/25 06:29:00;;;;;;;7.70;2.75;;;16.60;99.90;;;;;;4989022;28;20049;-58
2022/06/25 06:31:26;;;;;;;7.30;2.60;;;16.70;99.90;;;;;;4987546;28;20076;-59
2022/06/25 06:33:52;;;;;;;6.75;2.50;;;16.80;99.90;;;;;;4987589;28;20042;-59
2022/06/25 06:36:17;;;;;;;6.07;2.45;;;16.90;99.90;;;;;;4981200;28;20072;-59
2022/06/25 06:38:43;;;;;;;5.75;2.20;;;17.10;99.90;;;;;;4977134;28;20388;-59
2022/06/25 06:41:09;;;;;;;6.45;2.15;;;17.00;99.90;;;;;;4977643;28;20468;-59
2022/06/25 06:43:36;;;;;;;4.90;2.22;;;17.10;99.90;;;;;;4981104;28;20516;-59
2022/06/25 06:46:02;;;;;;;5.15;2.33;;;17.10;99.90;;;;;;4980852;28;20501;-59
2022/06/25 06:48:28;;;;;;;5.15;2.13;;;17.10;99.90;;;;;;4980942;28;20038;-59
2022/06/25 06:50:53;;;;;;;7.95;1.83;;;17.00;99.90;;;;;;4977990;28;20054;-59
2022/06/25 06:53:21;;;;;;;4.65;1.80;;;16.90;99.90;;;;;;4976512;28;20093;-59
2022/06/25 06:55:47;;;;;;;6.03;2.03;;;17.00;99.90;;;;;;4980334;28;20050;-59
2022/06/25 06:58:13;;;;;;;5.53;1.80;;;17.00;99.90;;;;;;4980975;28;20026;-59
2022/06/25 07:00:38;;;;;;;6.55;2.10;;;17.00;99.90;;;;;;4980911;28;20097;-59
2022/06/25 07:03:04;;;;;;;6.15;1.90;;;17.00;99.90;;;;;;4979594;28;20053;-59
2022/06/25 07:05:30;;;;;;;6.20;2.13;;;17.00;99.90;;;;;;4976374;28;20055;-59
2022/06/25 07:07:56;;;;;;;5.95;1.90;;;16.90;99.90;;;;;;4979091;28;20030;-59
2022/06/25 07:10:22;;;;;;;6.32;1.92;;;16.80;99.90;;;;;;4983283;28;20549;-59
2022/06/25 07:12:47;;;;;;;6.57;1.77;;;16.90;99.90;;;;;;4987293;28;20046;-59
2022/06/25 07:15:13;;;;;;;5.97;2.10;;;16.90;99.90;;;;;;4987295;28;20049;-59
2022/06/25 07:17:39;;;;;;;4.22;1.60;;;16.70;99.90;;;;;;4982582;28;20034;-58
2022/06/25 07:20:06;;;;;;;7.95;2.20;;;16.80;99.90;;;;;;4984291;28;20085;-59
2022/06/25 07:22:32;;;;;;;5.57;1.80;;;16.90;99.90;;;;;;4987275;28;20035;-59
2022/06/25 07:24:58;;;;;;;5.35;2.28;;;16.90;99.90;;;;;;4987151;28;20044;-59
2022/06/25 07:27:23;;;;;;;6.85;1.90;;;16.90;99.90;;;;;;4987266;28;20031;-59
2022/06/25 07:29:49;;;;;;;4.78;1.48;;;17.10;99.90;;;;;;4983849;28;20407;-59
2022/06/25 07:32:15;;;;;;;2.90;1.50;;;16.90;99.90;;;;;;4982704;28;20035;-59
2022/06/25 07:34:40;;;;;;;4.65;1.67;;;16.70;99.90;;;;;;4993458;28;20113;-59
2022/06/25 07:37:06;;;;;;;5.40;1.70;;;16.70;99.90;;;;;;4993967;28;20038;-59
2022/06/25 07:39:32;;;;;;;8.80;1.70;;;16.80;99.90;;;;;;4993561;28;20030;-59
2022/06/25 07:41:58;;;;;;;6.28;1.77;;;16.80;99.90;;;;;;4996091;28;20511;-59
2022/06/25 07:44:24;;;;;;;6.00;2.15;;;16.70;99.90;;;;;;4995856;28;20018;-59
2022/06/25 07:46:50;;;;;;;5.72;2.03;;;16.70;99.90;;;;;;4994146;28;20041;-59
2022/06/25 07:49:15;;;;;;;4.22;1.90;;;16.60;99.90;;;;;;4993281;28;20510;-59
2022/06/25 07:51:56;;;;;;;5.00;1.80;;;16.60;99.90;;;;;;4994660;28;20114;-59
2022/06/25 07:54:29;;;;;;;8.52;1.95;;;16.50;99.90;;;;;;4981273;28;20035;-59
2022/06/25 07:56:55;;;;;;;5.03;1.88;;;16.50;99.90;;;;;;4996469;28;20109;-59
2022/06/25 07:59:22;;;;;;;6.13;1.90;;;16.50;99.90;;;;;;4995342;28;20033;-59
2022/06/25 08:01:48;;;;;;;3.92;1.88;;;16.60;99.90;;;;;;4993905;28;20026;-59
2022/06/25 08:04:14;;;;;;;5.45;1.83;;;16.50;99.90;;;;;;4993202;28;20022;-59
2022/06/25 08:06:41;;;;;;;5.40;1.70;;;16.40;99.90;;;;;;4993528;28;20039;-59
2022/06/25 08:09:10;;;;;;;5.65;2.08;;;16.50;99.90;;;;;;4994690;28;20027;-59
2022/06/25 08:11:37;;;;;;;7.75;2.30;;;16.50;99.90;;;;;;4997295;28;20435;-59
2022/06/25 08:14:04;;;;;;;6.45;2.25;;;16.50;99.90;;;;;;4994325;28;20037;-59
2022/06/25 08:16:30;;;;;;;5.68;2.00;;;16.50;99.90;;;;;;4993350;28;20030;-59
2022/06/25 08:18:55;;;;;;;4.40;1.83;;;16.40;99.90;;;;;;4992788;28;20513;-59
2022/06/25 08:21:21;;;;;;;5.30;1.95;;;16.20;99.90;;;;;;4992810;28;20038;-59
2022/06/25 08:23:48;;;;;;;5.18;1.88;;;16.40;99.90;;;;;;4994274;28;20034;-58
2022/06/25 08:26:15;;;;;;;6.63;2.00;;;16.20;99.90;;;;;;4991768;28;20034;-59
2022/06/25 08:28:41;;;;;;;8.10;2.42;;;16.20;99.90;;;;;;4982938;28;20113;-59
2022/06/25 08:31:07;;;;;;;6.78;2.05;;;16.30;99.90;;;;;;4983665;28;20046;-58
2022/06/25 08:33:33;;;;;;;7.32;2.13;;;16.40;99.90;;;;;;4983088;28;20571;-59
2022/06/25 08:35:59;;;;;;;5.25;2.15;;;16.40;99.90;;;;;;4981434;28;20038;-59
2022/06/25 08:38:24;;;;;;;5.63;1.77;;;16.40;99.90;;;;;;4978881;28;20078;-59
2022/06/25 08:40:58;;;;;;;6.25;2.05;;;16.40;99.90;;;;;;4982574;28;20027;-59
2022/06/25 08:43:24;;;;;;;8.60;2.40;;;16.50;99.90;;;;;;4983248;28;20400;-59
2022/06/25 08:45:51;;;;;;;6.55;2.22;;;16.50;99.90;;;;;;4983363;28;20103;-58
2022/06/25 08:48:21;;;;;;;6.03;1.98;;;16.40;99.90;;;;;;4982997;28;20030;-59
2022/06/25 08:50:49;;;;;;;7.68;2.20;;;16.50;99.90;;;;;;4979465;28;20029;-59
2022/06/25 08:53:15;;;;;;;4.97;2.10;;;16.40;99.90;;;;;;4978905;28;20117;-59
2022/06/25 08:55:44;;;;;;;7.20;1.90;;;16.30;99.90;;;;;;4982271;28;20508;-59
2022/06/25 08:58:11;;;;;;;8.23;2.47;;;16.40;99.90;;;;;;4983421;28;20039;-59
2022/06/25 09:00:39;;;;;;;4.50;1.95;;;16.20;99.90;;;;;;4983078;28;20432;-58
2022/06/25 09:03:07;;;;;;;6.78;2.03;;;16.00;99.90;;;;;;4992527;28;20514;-59
2022/06/25 09:05:35;;;;;;;5.82;2.20;;;16.30;99.90;;;;;;4978330;28;20046;-59
2022/06/25 09:08:05;;;;;;;4.82;1.98;;;16.30;99.90;;;;;;4980592;28;20042;-59
2022/06/25 09:10:31;;;;;;;6.53;2.35;;;16.40;99.90;;;;;;4983057;28;20421;-59
2022/06/25 09:12:59;;;;;;;6.00;2.25;;;16.30;99.90;;;;;;4982601;28;20054;-59
2022/06/25 09:15:27;;;;;;;7.28;2.20;;;16.40;99.90;;;;;;4982546;28;20082;-59
2022/06/25 09:17:53;;;;;;;8.35;2.50;;;16.60;99.90;;;;;;4980228;28;20027;-59
2022/06/25 09:20:20;;;;;;;6.03;2.20;;;16.70;99.90;;;;;;4978247;28;20103;-59
2022/06/25 09:23:12;;;;;;;5.57;2.05;;;16.70;99.90;;;;;;4989056;28;20142;-59
2022/06/25 09:25:41;;;;;;;7.93;2.25;;;16.80;99.90;;;;;;4979840;28;20408;-58
2022/06/25 09:28:07;;;;;;;5.68;2.10;;;16.80;99.90;;;;;;4982363;28;20492;-59
2022/06/25 09:30:33;;;;;;;5.40;2.33;;;16.80;99.90;;;;;;4982074;28;20033;-59
2022/06/25 09:33:00;;;;;;;9.27;2.78;;;16.90;99.90;;;;;;4979593;28;20034;-59
2022/06/25 09:35:41;;;;;;;6.43;2.20;;;17.00;99.90;;;;;;4978262;28;20019;-59
2022/06/25 09:38:10;;;;;;;6.30;2.45;;;17.10;99.90;;;;;;4978763;28;20035;-59
2022/06/25 09:40:37;;;;;;;6.25;2.10;;;17.00;99.90;;;;;;4982315;28;20042;-59
2022/06/25 09:43:20;;;;;;;5.40;1.67;;;16.90;99.90;;;;;;4982111;28;20027;-59
2022/06/25 09:45:54;;;;;;;7.70;2.15;;;16.90;99.90;;;;;;4981868;28;20042;-59
2022/06/25 09:48:31;;;;;;;4.45;1.70;;;16.80;99.90;;;;;;4982658;28;20044;-59
2022/06/25 09:51:20;;;;;;;11.50;2.17;;;16.70;99.90;;;;;;4979606;28;20407;-58
2022/06/25 09:53:58;;;;;;;4.10;1.65;;;16.60;99.90;;;;;;4977580;28;20073;-59
2022/06/25 09:56:27;;;;;;;5.53;2.00;;;16.60;99.90;;;;;;4990351;28;20058;-59
2022/06/25 09:58:54;;;;;;;5.35;2.35;;;16.60;99.90;;;;;;4978678;28;20081;-59
2022/06/25 10:01:22;;;;;;;7.57;2.35;;;16.50;99.90;;;;;;4982004;28;20101;-58
2022/06/25 10:03:49;;;;;;;4.68;2.03;;;16.70;99.90;;;;;;4981889;28;20112;-59
2022/06/25 10:06:22;;;;;;;4.97;2.03;;;16.40;99.90;;;;;;4981770;28;20029;-59
2022/06/25 10:08:56;;;;;;;5.88;2.08;;;16.60;99.90;;;;;;4977975;28;20027;-59
2022/06/25 10:11:24;;;;;;;6.05;2.10;;;16.60;99.90;;;;;;4990176;28;20030;-59
2022/06/25 10:13:51;;;;;;;5.88;2.00;;;16.70;99.90;;;;;;4988554;28;20038;-59
2022/06/25 10:16:18;;;;;;;4.72;2.10;;;16.60;99.90;;;;;;4987915;28;20088;-59
2022/06/25 10:18:44;;;;;;;5.45;1.90;;;16.60;99.90;;;;;;4985054;28;20036;-59
2022/06/25 10:21:12;;;;;;;4.63;1.85;;;16.40;99.90;;;;;;4977380;28;20376;-58
2022/06/25 10:23:41;;;;;;;5.85;2.20;;;16.10;99.90;;;;;;4991938;28;20026;-59
2022/06/25 10:26:08;;;;;;;3.17;1.50;;;16.40;99.90;;;;;;4988661;28;20030;-59
2022/06/25 10:28:37;;;;;;;3.20;1.80;;;16.10;99.90;;;;;;4981627;28;20492;-59
2022/06/25 10:31:10;;;;;;;5.07;1.88;;;16.20;99.90;;;;;;4981357;28;20023;-59
2022/06/25 10:33:54;;;;;;;4.82;1.70;;;16.10;99.90;;;;;;4981530;28;20046;-59
2022/06/25 10:36:43;;;;;;;4.60;1.75;;;16.30;99.90;;;;;;4981704;28;20038;-59
2022/06/25 10:39:27;;;;;;;5.38;1.77;;;16.40;99.90;;;;;;4980175;28;20029;-59
2022/06/25 10:45:16;;;;;;;4.13;1.65;;;16.20;99.90;;;;;;4976210;28;20030;-59
2022/06/25 10:47:52;;;;;;;5.07;1.60;;;16.20;99.90;;;;;;4954991;28;20038;-59
2022/06/25 10:50:21;;;;;;;4.47;2.10;;;16.20;99.90;;;;;;4970767;28;20081;-59
2022/06/25 10:53:02;;;;;;;6.40;2.10;;;16.00;99.90;;;;;;4970853;28;20056;-59
2022/06/25 10:55:48;;;;;;;5.88;1.95;;;16.10;99.90;;;;;;4966355;28;20054;-58
2022/06/25 10:58:24;;;;;;;5.10;2.20;;;16.20;99.90;;;;;;4969848;28;20041;-59
2022/06/25 11:00:51;;;;;;;3.75;2.00;;;16.30;99.90;;;;;;4966093;28;20086;-59
2022/06/25 11:03:38;;;;;;;4.28;2.03;;;16.30;99.90;;;;;;4970464;28;20131;-59
2022/06/25 11:06:23;;;;;;;3.58;1.85;;;16.60;99.90;;;;;;4967968;28;20074;-59
2022/06/25 11:08:50;;;;;;;6.25;2.22;;;16.70;99.90;;;;;;4970003;28;20035;-59
2022/06/25 11:11:27;;;;;;;6.45;2.10;;;16.40;99.90;;;;;;4967530;28;20472;-59
2022/06/25 11:13:53;;;;;;;5.47;2.13;;;16.40;99.90;;;;;;4970702;28;20039;-59
2022/06/25 11:16:19;;;;;;;6.25;1.88;;;16.90;99.90;;;;;;4966428;28;20034;-59
2022/06/25 11:19:00;;;;;;;5.15;2.05;;;17.40;99.90;;;;;;4970085;28;20050;-59
2022/06/25 11:21:30;;;;;;;6.32;2.10;;;18.10;99.90;;;;;;4965945;28;20106;-59
2022/06/25 11:24:14;;;;;;;5.68;2.10;;;18.30;99.90;;;;;;4971888;28;20077;-59
2022/06/25 11:29:35;;;;;;;3.65;1.80;;;17.90;99.90;;;;;;4990035;28;20005;-59
2022/06/25 11:32:01;;;;;;;5.22;2.03;;;18.00;99.90;;;;;;4977521;28;20022;-59
2022/06/25 11:34:29;;;;;;;4.35;2.13;;;18.10;99.90;;;;;;4980792;28;20091;-59
2022/06/25 11:37:04;;;;;;;4.25;2.30;;;17.90;99.90;;;;;;4980408;28;20565;-59
2022/06/25 11:39:30;;;;;;;3.47;2.03;;;18.00;99.90;;;;;;4980627;28;20038;-59
2022/06/25 11:41:57;;;;;;;5.15;2.15;;;18.10;99.90;;;;;;4977756;28;20022;-59
2022/06/25 11:44:23;;;;;;;5.57;2.15;;;18.40;99.90;;;;;;4976219;28;20555;-59
2022/06/25 11:46:49;;;;;;;4.18;2.00;;;18.70;99.90;;;;;;4979797;28;20023;-59
2022/06/25 11:49:16;;;;;;;4.15;2.00;;;18.90;99.90;;;;;;4981014;28;20518;-59
2022/06/25 11:51:51;;;;;;;4.97;2.10;;;19.30;99.90;;;;;;4980388;28;20452;-59
2022/06/25 11:54:21;;;;;;;4.25;2.17;;;19.50;99.90;;;;;;4980513;28;20530;-59
2022/06/25 11:56:55;;;;;;;6.63;2.22;;;19.10;99.90;;;;;;4977572;28;20063;-59
2022/06/25 11:59:28;;;;;;;;;;;19.60;99.90;;;;;;4980294;28;20031;-59
2022/06/25 12:01:55;;;;;;;5.18;2.20;;;19.30;99.90;;;;;;4980590;28;19913;-59
2022/06/25 12:04:21;;;;;;;7.47;2.45;;;19.60;99.90;;;;;;4984720;28;20063;-59
2022/06/25 12:06:48;;;;;;;6.95;2.40;;;19.70;99.90;;;;;;4983956;28;20061;-59
2022/06/25 12:09:16;;;;;;;6.65;2.65;;;19.90;99.90;;;;;;4983713;28;20476;-59
2022/06/25 12:11:51;;;;;;;5.35;2.45;;;19.80;99.90;;;;;;4979007;28;20081;-59
2022/06/25 12:14:25;;;;;;;6.72;2.45;;;20.30;99.90;;;;;;4992038;28;20504;-59
2022/06/25 12:16:52;;;;;;;5.53;2.25;;;20.70;99.90;;;;;;4990544;28;20032;-59
2022/06/25 12:19:18;;;;;;;5.53;2.30;;;21.50;99.90;;;;;;4990318;28;20041;-59
2022/06/25 12:21:44;;;;;;;6.40;2.30;;;22.00;99.90;;;;;;4990286;28;20058;-59
2022/06/25 12:24:14;;;;;;;4.43;2.15;;;22.30;99.90;;;;;;4994962;28;20072;-59
2022/06/25 12:26:49;;;;;;;4.93;1.98;;;21.60;99.90;;;;;;4979073;28;20434;-59
2022/06/25 12:29:20;;;;;;;4.85;1.75;;;21.90;99.90;;;;;;4991472;28;20060;-59
2022/06/25 12:31:56;;;;;;;4.60;2.08;;;22.00;99.90;;;;;;4989752;28;20037;-59
2022/06/25 12:34:23;;;;;;;4.53;2.00;;;22.10;99.90;;;;;;4989871;28;20049;-59
2022/06/25 12:36:51;;;;;;;3.83;2.00;;;21.70;99.90;;;;;;4990340;28;20022;-59
2022/06/25 12:39:36;;;;;;;5.85;2.28;;;22.10;99.90;;;;;;4989654;28;20097;-59
2022/06/25 12:42:04;;;;;;;4.75;2.08;;;22.20;99.90;;;;;;4992511;28;20034;-59
2022/06/25 12:44:39;;;;;;;4.35;1.98;;;22.30;99.90;;;;;;4992741;28;20022;-59
2022/06/25 12:47:10;;;;;;;5.05;1.77;;;22.50;99.90;;;;;;4990578;28;20497;-59
2022/06/25 12:49:49;;;;;;;5.13;2.28;;;22.30;99.90;;;;;;4989604;28;20472;-59
2022/06/25 12:52:19;;;;;;;3.53;1.90;;;21.90;99.90;;;;;;4989769;28;20117;-59
2022/06/25 12:54:54;;;;;;;6.05;1.98;;;21.90;99.90;;;;;;4989882;28;20034;-59
2022/06/25 12:57:21;;;;;;;4.53;1.80;;;21.70;99.90;;;;;;4989488;28;20057;-59
2022/06/25 12:59:47;;;;;;;5.10;1.90;;;21.70;99.90;;;;;;4993731;28;20384;-59
2022/06/25 13:02:13;;;;;;;4.88;1.85;;;22.00;99.90;;;;;;4990860;28;20077;-59
2022/06/25 13:04:40;;;;;;;4.85;2.00;;;22.40;99.90;;;;;;4983536;28;20039;-59
2022/06/25 13:07:06;;;;;;;3.15;1.50;;;22.60;99.90;;;;;;4982952;28;20034;-59